Главная страница
METAR-TAF:

METAR-TAF

Аэропорты :

Анкара Эсенбога, Турция

широта: 40-07N, долгота: 032-59E, высота над уровнем моря: 953 м

Текущие метеонаблюдения

Эта сводка был подготовлена 49 минут назад, в 01:50 UTC
Ветер 2 Узел переменных направлений
Температура 0°C
Влажность 74%
Давление 1013 hPa
Видимость 10 км и более
Нет облачности ниже 1500 м, и нет кучево-дождевой облачности

METAR: LTAC 100150Z VRB02KT CAVOK M00/M04 Q1013 NOSIG

Время: 05:39 (02:39 UTC)

Прогноз

Эта сводка был подготовлена 3 часа и 59 минут назад, в 22:40 UTC
Прогноз действительный с 10-го 00 UTC до 10-го 24 UTC
Ветер 2 Узел переменных направлений
Видимость 10 км и более
Нет облачности ниже 1500 м, и нет кучево-дождевой облачности
изменения
С 10-го 04 UTC до 10-го 06 UTC
Отдельные облака на высоте 4000 фута
временами
С 10-го 13 UTC до 10-го 17 UTC
Ветер 12 Узел от северо-северо-восточный

TAF: LTAC 092240Z 1000/1024 VRB02KT CAVOK BECMG 1004/1006 SCT040 TEMPO 1013/1017 03012KT

Метеонаблюдения и прогнозы для более 4000 аэропортов (сводки METAR и TAF).

Имеющиеся станции представлены на карте желтыми и красными точками.

Чтобы увидеть название станции, наведите на нее мышь.

Затем щелкните, чтобы увидеть метеонаблюдения и метеопрогнозы.

Управление картой: чтобы увеличить масштаб, щелкните зеленые кнопки с черным крестиком; чтобы уменьшить масштаб, щелкните зеленую кнопку с тире; для просмотра соседних карт щелкайте зеленые стрелки.


METAR-TAF: